Time,TemperatureF,DewpointF,PressureIn,WindDirection,WindDirectionDegrees,WindSpeedMPH,WindSpeedGustMPH,Humidity,HourlyPrecipIn,Conditions,Clouds,dailyrainin,SoftwareType,DateUTC
2013-02-24 00:01:00,78.0,78.0,29.75,North,0,0.0,0.0,99,0.00,,,0.00,,2013-02-23 14:01:00,
2013-02-24 00:11:00,78.0,78.0,29.75,North,0,0.0,0.0,99,0.00,,,0.00,,2013-02-23 14:11:00,
2013-02-24 00:21:00,78.0,78.0,29.74,North,0,0.0,0.0,99,0.00,,,0.00,,2013-02-23 14:21:00,
2013-02-24 00:32:00,78.0,78.0,29.74,North,0,0.0,0.0,99,0.00,,,0.00,,2013-02-23 14:32:00,
2013-02-24 00:41:00,78.0,78.0,29.74,North,0,0.0,0.0,99,0.00,,,0.00,,2013-02-23 14:41:00,
2013-02-24 00:52:00,78.0,78.0,29.73,North,0,0.0,0.0,99,0.00,,,0.00,,2013-02-23 14:52:00,
2013-02-24 01:01:00,78.0,78.0,29.73,NW,314,0.0,1.0,99,0.00,,,0.00,,2013-02-23 15:01:00,
2013-02-24 01:11:00,78.0,78.0,29.73,NW,314,0.0,1.0,99,0.00,,,0.00,,2013-02-23 15:11:00,
2013-02-24 01:21:00,78.0,78.0,29.73,North,0,0.0,0.0,99,0.00,,,0.00,,2013-02-23 15:21:00,
2013-02-24 01:31:00,78.0,78.0,29.73,North,0,0.0,0.0,99,0.00,,,0.00,,2013-02-23 15:31:00,
2013-02-24 01:41:00,78.0,78.0,29.73,North,0,0.0,0.0,99,0.00,,,0.00,,2013-02-23 15:41:00,
2013-02-24 01:52:00,78.0,78.0,29.73,NW,314,0.0,2.0,99,0.00,,,0.00,,2013-02-23 15:52:00,
2013-02-24 02:01:00,78.0,78.0,29.72,NE,46,0.0,2.0,99,0.00,,,0.00,,2013-02-23 16:01:00,
2013-02-24 02:11:00,78.0,78.0,29.72,NE,46,0.0,2.0,99,0.00,,,0.00,,2013-02-23 16:11:00,
2013-02-24 02:21:00,78.0,78.0,29.72,North,0,0.0,0.0,99,0.00,,,0.00,,2013-02-23 16:21:00,
2013-02-24 02:31:00,78.0,78.0,29.70,North,0,0.0,0.0,99,0.00,,,0.00,,2013-02-23 16:31:00,
2013-02-24 02:42:00,78.0,78.0,29.70,North,0,0.0,0.0,99,0.00,,,0.00,,2013-02-23 16:42:00,
2013-02-24 02:52:00,78.0,78.0,29.70,North,0,0.0,0.0,99,0.00,,,0.00,,2013-02-23 16:52:00,
2013-02-24 03:01:00,77.0,77.0,29.68,NW,314,0.0,1.0,99,0.00,,,0.00,,2013-02-23 17:01:00,
2013-02-24 03:11:00,77.0,77.0,29.68,NW,314,0.0,1.0,99,0.00,,,0.00,,2013-02-23 17:11:00,
2013-02-24 03:21:00,77.0,77.0,29.67,NW,314,0.0,1.0,99,0.00,,,0.00,,2013-02-23 17:21:00,
2013-02-24 03:31:00,77.0,77.0,29.67,NW,314,0.0,1.0,99,0.00,,,0.00,,2013-02-23 17:31:00,
2013-02-24 03:41:00,77.0,77.0,29.67,NW,314,0.0,1.0,99,0.00,,,0.00,,2013-02-23 17:41:00,
2013-02-24 03:52:00,77.0,77.0,29.67,NW,314,0.0,2.0,99,0.00,,,0.00,,2013-02-23 17:52:00,
2013-02-24 04:01:00,77.0,77.0,29.67,NNE,12,0.0,2.0,99,0.00,,,0.00,,2013-02-23 18:01:00,
2013-02-24 04:11:00,77.0,77.0,29.67,NNE,12,0.0,2.0,99,0.00,,,0.00,,2013-02-23 18:11:00,
2013-02-24 04:21:00,76.0,76.0,29.67,North,1,0.0,2.0,99,0.00,,,0.00,,2013-02-23 18:21:00,
2013-02-24 04:31:00,76.0,76.0,29.67,South,181,0.0,2.0,99,0.00,,,0.00,,2013-02-23 18:31:00,
2013-02-24 04:41:00,76.0,76.0,29.67,South,181,0.0,2.0,99,0.00,,,0.00,,2013-02-23 18:41:00,
2013-02-24 04:52:00,76.0,76.0,29.66,NW,314,0.0,1.0,99,0.00,,,0.00,,2013-02-23 18:52:00,
2013-02-24 05:01:00,76.0,76.0,29.66,NW,314,0.0,1.0,99,0.00,,,0.00,,2013-02-23 19:01:00,
2013-02-24 05:11:00,76.0,76.0,29.66,NW,314,0.0,1.0,99,0.00,,,0.00,,2013-02-23 19:11:00,
2013-02-24 05:21:00,76.0,76.0,29.66,North,0,0.0,0.0,99,0.00,,,0.00,,2013-02-23 19:21:00,
2013-02-24 05:32:00,76.0,76.0,29.66,North,0,0.0,0.0,99,0.00,,,0.00,,2013-02-23 19:32:00,
2013-02-24 05:41:00,76.0,76.0,29.66,North,0,0.0,0.0,99,0.00,,,0.00,,2013-02-23 19:41:00,
2013-02-24 05:52:00,75.0,75.0,29.67,North,0,0.0,0.0,99,0.00,,,0.00,,2013-02-23 19:52:00,
2013-02-24 06:01:00,75.0,75.0,29.67,North,0,0.0,0.0,99,0.00,,,0.00,,2013-02-23 20:01:00,
2013-02-24 06:11:00,75.0,75.0,29.67,North,0,0.0,0.0,99,0.00,,,0.00,,2013-02-23 20:11:00,
2013-02-24 06:21:00,75.0,75.0,29.67,NE,45,0.0,1.0,99,0.00,,,0.00,,2013-02-23 20:21:00,
2013-02-24 06:31:00,74.0,74.0,29.68,North,0,0.0,0.0,99,0.00,,,0.00,,2013-02-23 20:31:00,
2013-02-24 06:42:00,74.0,74.0,29.68,North,0,0.0,0.0,99,0.00,,,0.00,,2013-02-23 20:42:00,
2013-02-24 06:52:00,74.0,74.0,29.68,North,1,0.0,1.0,99,0.00,,,0.00,,2013-02-23 20:52:00,
2013-02-24 07:01:00,74.0,74.0,29.69,NW,324,0.0,1.0,99,0.00,,,0.00,,2013-02-23 21:01:00,
2013-02-24 07:11:00,75.0,75.0,29.70,North,0,0.0,0.0,99,0.00,,,0.00,,2013-02-23 21:11:00,
2013-02-24 07:22:00,75.0,75.0,29.70,North,0,0.0,0.0,99,0.00,,,0.00,,2013-02-23 21:22:00,
2013-02-24 07:31:00,76.0,76.0,29.71,NNW,328,0.0,2.0,99,0.00,,,0.00,,2013-02-23 21:31:00,
2013-02-24 07:41:00,76.0,76.0,29.71,NNW,328,0.0,2.0,99,0.00,,,0.00,,2013-02-23 21:41:00,
2013-02-24 07:52:00,77.0,77.0,29.72,North,0,0.0,0.0,99,0.00,,,0.00,,2013-02-23 21:52:00,
2013-02-24 08:01:00,78.0,78.0,29.72,North,0,0.0,0.0,99,0.00,,,0.00,,2013-02-23 22:01:00,
2013-02-24 08:11:00,86.0,85.0,29.73,NW,314,0.0,2.0,96,0.00,,,0.00,,2013-02-23 22:11:00,
2013-02-24 08:21:00,86.0,85.0,29.73,NW,314,0.0,2.0,96,0.00,,,0.00,,2013-02-23 22:21:00,
2013-02-24 08:31:00,85.0,82.0,29.73,NW,310,0.0,2.0,91,0.00,,,0.00,,2013-02-23 22:31:00,
2013-02-24 08:41:00,85.0,82.0,29.73,NW,310,0.0,2.0,91,0.00,,,0.00,,2013-02-23 22:41:00,
2013-02-24 08:52:00,85.0,82.0,29.74,NW,314,0.0,2.0,91,0.00,,,0.00,,2013-02-23 22:52:00,
2013-02-24 09:01:00,86.0,83.0,29.74,NW,314,0.0,2.0,92,0.00,,,0.00,,2013-02-23 23:01:00,
2013-02-24 09:11:00,86.0,83.0,29.74,NW,314,0.0,2.0,92,0.00,,,0.00,,2013-02-23 23:11:00,
2013-02-24 09:21:00,87.0,84.0,29.75,NW,314,1.0,2.0,90,0.00,,,0.00,,2013-02-23 23:21:00,
2013-02-24 09:31:00,85.0,83.0,29.74,NW,314,1.0,2.0,95,0.00,,,0.00,,2013-02-23 23:31:00,
2013-02-24 09:41:00,85.0,83.0,29.74,NW,314,1.0,2.0,95,0.00,,,0.00,,2013-02-23 23:41:00,
2013-02-24 09:52:00,85.0,84.0,29.75,NW,318,0.0,3.0,97,0.00,,,0.00,,2013-02-23 23:52:00,
2013-02-24 10:01:00,85.0,84.0,29.74,NW,314,0.0,2.0,96,0.00,,,0.00,,2013-02-24 00:01:00,
2013-02-24 10:11:00,85.0,84.0,29.74,NW,314,0.0,2.0,96,0.00,,,0.00,,2013-02-24 00:11:00,
2013-02-24 10:21:00,84.0,84.0,29.75,West,275,0.0,3.0,99,0.00,,,0.00,,2013-02-24 00:21:00,
2013-02-24 10:31:00,84.0,84.0,29.75,West,275,0.0,3.0,99,0.00,,,0.00,,2013-02-24 00:31:00,
2013-02-24 10:42:00,84.0,84.0,29.75,West,275,0.0,3.0,99,0.00,,,0.00,,2013-02-24 00:42:00,
2013-02-24 10:52:00,87.0,86.0,29.75,NW,314,0.0,2.0,96,0.00,,,0.00,,2013-02-24 00:52:00,
2013-02-24 11:01:00,87.0,85.0,29.75,NW,314,0.0,2.0,95,0.00,,,0.00,,2013-02-24 01:01:00,
2013-02-24 11:11:00,87.0,85.0,29.75,NW,314,0.0,2.0,95,0.00,,,0.00,,2013-02-24 01:11:00,
2013-02-24 11:22:00,87.0,86.0,29.74,NW,314,0.0,2.0,97,0.00,,,0.00,,2013-02-24 01:22:00,
2013-02-24 11:31:00,87.0,86.0,29.75,NW,314,0.0,2.0,98,0.00,,,0.00,,2013-02-24 01:31:00,
2013-02-24 11:41:00,87.0,86.0,29.75,NW,314,0.0,2.0,98,0.00,,,0.00,,2013-02-24 01:41:00,
2013-02-24 11:52:00,88.0,87.0,29.74,NW,315,0.0,2.0,97,0.00,,,0.00,,2013-02-24 01:52:00,
2013-02-24 12:01:00,88.0,87.0,29.74,NW,315,0.0,2.0,97,0.00,,,0.00,,2013-02-24 02:01:00,
2013-02-24 12:11:00,88.0,87.0,29.74,NW,315,0.0,2.0,97,0.00,,,0.00,,2013-02-24 02:11:00,
2013-02-24 12:21:00,92.0,87.0,29.72,SW,235,0.0,4.0,86,0.00,,,0.00,,2013-02-24 02:21:00,
2013-02-24 12:32:00,92.0,87.0,29.72,SW,235,0.0,4.0,86,0.00,,,0.00,,2013-02-24 02:32:00,
2013-02-24 12:42:00,92.0,87.0,29.72,SW,235,0.0,4.0,86,0.00,,,0.00,,2013-02-24 02:42:00,
2013-02-24 12:52:00,90.0,89.0,29.71,NW,310,0.0,1.0,97,0.01,,,0.01,,2013-02-24 02:52:00,
2013-02-24 13:01:00,90.0,89.0,29.71,NW,310,0.0,1.0,97,0.01,,,0.01,,2013-02-24 03:01:00,
2013-02-24 13:11:00,90.0,89.0,29.71,NW,310,0.0,1.0,97,0.01,,,0.01,,2013-02-24 03:11:00,
2013-02-24 13:21:00,90.0,87.0,29.69,SE,130,1.0,7.0,92,0.01,,,0.01,,2013-02-24 03:21:00,
2013-02-24 13:32:00,90.0,88.0,29.69,SSE,164,2.0,6.0,94,0.01,,,0.01,,2013-02-24 03:32:00,
2013-02-24 13:42:00,90.0,88.0,29.69,SSE,164,2.0,6.0,94,0.01,,,0.01,,2013-02-24 03:42:00,
2013-02-24 13:52:00,96.0,88.0,29.67,WSW,240,1.0,6.0,79,0.00,,,0.01,,2013-02-24 03:52:00,
2013-02-24 14:01:00,96.0,88.0,29.67,WSW,240,1.0,6.0,79,0.00,,,0.01,,2013-02-24 04:01:00,
2013-02-24 14:11:00,96.0,88.0,29.67,WSW,240,1.0,6.0,79,0.00,,,0.01,,2013-02-24 04:11:00,
2013-02-24 14:21:00,95.0,88.0,29.66,South,191,2.0,8.0,80,0.00,,,0.01,,2013-02-24 04:21:00,
2013-02-24 14:31:00,95.0,88.0,29.66,SSW,203,2.0,7.0,80,0.00,,,0.01,,2013-02-24 04:31:00,
2013-02-24 14:42:00,95.0,88.0,29.66,SSW,203,2.0,7.0,80,0.00,,,0.01,,2013-02-24 04:42:00,
2013-02-24 14:52:00,93.0,86.0,29.65,South,179,4.0,8.0,80,0.00,,,0.01,,2013-02-24 04:52:00,
2013-02-24 15:01:00,93.0,86.0,29.65,South,179,4.0,8.0,80,0.00,,,0.01,,2013-02-24 05:01:00,
2013-02-24 15:11:00,93.0,86.0,29.65,South,179,4.0,8.0,80,0.00,,,0.01,,2013-02-24 05:11:00,
2013-02-24 15:21:00,98.0,87.0,29.65,SSW,194,3.0,8.0,71,0.00,,,0.01,,2013-02-24 05:21:00,
2013-02-24 15:32:00,92.0,86.0,29.65,SSW,209,1.0,8.0,82,0.00,,,0.01,,2013-02-24 05:32:00,
2013-02-24 15:42:00,92.0,86.0,29.65,SSW,209,1.0,8.0,82,0.00,,,0.01,,2013-02-24 05:42:00,
2013-02-24 15:52:00,92.0,86.0,29.64,WSW,258,2.0,9.0,84,0.00,,,0.01,,2013-02-24 05:52:00,
2013-02-24 16:01:00,92.0,86.0,29.64,WSW,258,2.0,9.0,84,0.00,,,0.01,,2013-02-24 06:01:00,
2013-02-24 16:11:00,92.0,86.0,29.64,WSW,258,2.0,9.0,84,0.00,,,0.01,,2013-02-24 06:11:00,
2013-02-24 16:21:00,91.0,85.0,29.64,SW,231,1.0,5.0,83,0.00,,,0.01,,2013-02-24 06:21:00,
2013-02-24 16:31:00,92.0,86.0,29.64,SW,219,1.0,8.0,82,0.00,,,0.01,,2013-02-24 06:31:00,
2013-02-24 16:42:00,92.0,86.0,29.64,SW,219,1.0,8.0,82,0.00,,,0.01,,2013-02-24 06:42:00,
2013-02-24 16:52:00,87.0,84.0,29.64,NW,306,0.0,2.0,92,0.00,,,0.01,,2013-02-24 06:52:00,
2013-02-24 17:01:00,87.0,87.0,29.65,NW,304,0.0,1.0,99,0.01,,,0.02,,2013-02-24 07:01:00,
2013-02-24 17:11:00,87.0,87.0,29.65,NW,304,0.0,1.0,99,0.01,,,0.02,,2013-02-24 07:11:00,
2013-02-24 17:21:00,90.0,87.0,29.64,NW,324,0.0,2.0,91,0.01,,,0.02,,2013-02-24 07:21:00,
2013-02-24 17:31:00,88.0,86.0,29.65,South,190,0.0,2.0,95,0.01,,,0.02,,2013-02-24 07:31:00,
2013-02-24 17:41:00,88.0,86.0,29.65,South,190,0.0,2.0,95,0.01,,,0.02,,2013-02-24 07:41:00,
2013-02-24 17:52:00,83.0,83.0,29.65,NW,314,0.0,2.0,99,0.01,,,0.02,,2013-02-24 07:52:00,
2013-02-24 18:01:00,83.0,83.0,29.65,North,0,0.0,0.0,99,0.00,,,0.02,,2013-02-24 08:01:00,
2013-02-24 18:11:00,83.0,83.0,29.65,North,0,0.0,0.0,99,0.00,,,0.02,,2013-02-24 08:11:00,
2013-02-24 18:22:00,83.0,83.0,29.66,NW,319,0.0,6.0,99,0.00,,,0.02,,2013-02-24 08:22:00,
2013-02-24 18:31:00,83.0,83.0,29.66,North,0,0.0,0.0,99,0.00,,,0.02,,2013-02-24 08:31:00,
2013-02-24 18:41:00,83.0,83.0,29.66,North,0,0.0,0.0,99,0.00,,,0.02,,2013-02-24 08:41:00,
2013-02-24 18:53:00,83.0,83.0,29.67,NE,46,0.0,2.0,99,0.00,,,0.02,,2013-02-24 08:53:00,
2013-02-24 19:01:00,82.0,82.0,29.67,North,0,0.0,0.0,99,0.00,,,0.02,,2013-02-24 09:01:00,
2013-02-24 19:11:00,82.0,82.0,29.67,North,0,0.0,0.0,99,0.00,,,0.02,,2013-02-24 09:11:00,
2013-02-24 19:21:00,81.0,81.0,29.68,North,0,0.0,0.0,99,0.00,,,0.02,,2013-02-24 09:21:00,
2013-02-24 19:31:00,80.0,80.0,29.67,North,0,0.0,0.0,99,0.00,,,0.02,,2013-02-24 09:31:00,
2013-02-24 19:41:00,80.0,80.0,29.67,North,0,0.0,0.0,99,0.00,,,0.02,,2013-02-24 09:41:00,
2013-02-24 19:52:00,80.0,80.0,29.69,North,0,0.0,0.0,99,0.00,,,0.02,,2013-02-24 09:52:00,
2013-02-24 20:01:00,80.0,80.0,29.70,North,0,0.0,0.0,99,0.00,,,0.02,,2013-02-24 10:01:00,
2013-02-24 20:11:00,80.0,80.0,29.70,North,0,0.0,0.0,99,0.00,,,0.02,,2013-02-24 10:11:00,
2013-02-24 20:21:00,79.0,79.0,29.70,North,0,0.0,0.0,99,0.00,,,0.02,,2013-02-24 10:21:00,
2013-02-24 20:31:00,79.0,79.0,29.70,North,0,0.0,0.0,99,0.00,,,0.02,,2013-02-24 10:31:00,
2013-02-24 20:41:00,79.0,79.0,29.70,North,0,0.0,0.0,99,0.00,,,0.02,,2013-02-24 10:41:00,
2013-02-24 20:52:00,78.0,78.0,29.71,North,0,0.0,0.0,99,0.00,,,0.02,,2013-02-24 10:52:00,
2013-02-24 21:01:00,78.0,78.0,29.72,North,1,0.0,4.0,99,0.00,,,0.02,,2013-02-24 11:01:00,
2013-02-24 21:11:00,78.0,78.0,29.72,North,1,0.0,4.0,99,0.00,,,0.02,,2013-02-24 11:11:00,
2013-02-24 21:21:00,78.0,78.0,29.72,North,0,0.0,0.0,99,0.00,,,0.02,,2013-02-24 11:21:00,
2013-02-24 21:31:00,78.0,78.0,29.72,North,1,0.0,1.0,99,0.00,,,0.02,,2013-02-24 11:31:00,
2013-02-24 21:41:00,78.0,78.0,29.72,North,1,0.0,1.0,99,0.00,,,0.02,,2013-02-24 11:41:00,
2013-02-24 21:52:00,78.0,78.0,29.73,South,181,0.0,2.0,99,0.00,,,0.02,,2013-02-24 11:52:00,
2013-02-24 22:01:00,78.0,78.0,29.73,North,0,0.0,0.0,99,0.00,,,0.02,,2013-02-24 12:01:00,
2013-02-24 22:11:00,78.0,78.0,29.73,North,0,0.0,0.0,99,0.00,,,0.02,,2013-02-24 12:11:00,
2013-02-24 22:21:00,78.0,78.0,29.73,NW,314,0.0,1.0,99,0.00,,,0.02,,2013-02-24 12:21:00,
2013-02-24 22:32:00,78.0,78.0,29.74,North,6,0.0,2.0,99,0.00,,,0.02,,2013-02-24 12:32:00,
2013-02-24 22:45:00,78.0,78.0,29.74,North,6,0.0,2.0,99,0.00,,,0.02,,2013-02-24 12:45:00,
2013-02-24 22:55:00,78.0,78.0,29.74,NNE,29,0.0,1.0,99,0.00,,,0.02,,2013-02-24 12:55:00,
2013-02-24 23:14:00,78.0,78.0,29.73,North,0,0.0,0.0,99,0.00,,,0.02,,2013-02-24 13:14:00,
2013-02-24 23:32:00,78.0,78.0,29.74,NE,45,0.0,1.0,99,0.00,,,0.02,,2013-02-24 13:32:00,
2013-02-24 23:42:00,78.0,78.0,29.74,NE,45,0.0,1.0,99,0.00,,,0.02,,2013-02-24 13:42:00,
2013-02-24 23:54:00,78.0,78.0,29.74,NE,45,0.0,2.0,99,0.00,,,0.02,,2013-02-24 13:54:00,